sensor_id;sensor_type;location;lat;lon;timestamp;P1;durP1;ratioP1;P2;durP2;ratioP2
75171;SDS011;63750;52.418;20.742;2023-05-10T00:01:41;11.40;;;10.30;;
75171;SDS011;63750;52.418;20.742;2023-05-10T00:04:08;14.60;;;10.40;;
75171;SDS011;63750;52.418;20.742;2023-05-10T00:06:35;12.70;;;10.50;;
75171;SDS011;63750;52.418;20.742;2023-05-10T00:09:02;12.50;;;10.50;;
75171;SDS011;63750;52.418;20.742;2023-05-10T00:11:29;11.30;;;10.20;;
75171;SDS011;63750;52.418;20.742;2023-05-10T00:13:56;12.90;;;10.60;;
75171;SDS011;63750;52.418;20.742;2023-05-10T00:16:23;12.00;;;9.90;;
75171;SDS011;63750;52.418;20.742;2023-05-10T00:18:50;11.80;;;9.80;;
75171;SDS011;63750;52.418;20.742;2023-05-10T00:21:17;11.30;;;10.00;;
75171;SDS011;63750;52.418;20.742;2023-05-10T00:23:44;12.80;;;10.80;;
75171;SDS011;63750;52.418;20.742;2023-05-10T00:26:11;11.90;;;10.70;;
75171;SDS011;63750;52.418;20.742;2023-05-10T00:28:38;11.60;;;10.00;;
75171;SDS011;63750;52.418;20.742;2023-05-10T00:31:05;11.20;;;9.70;;
75171;SDS011;63750;52.418;20.742;2023-05-10T00:33:32;11.90;;;10.00;;
75171;SDS011;63750;52.418;20.742;2023-05-10T00:35:59;13.10;;;11.10;;
75171;SDS011;63750;52.418;20.742;2023-05-10T00:38:26;12.90;;;10.50;;
75171;SDS011;63750;52.418;20.742;2023-05-10T00:40:53;11.70;;;10.30;;
75171;SDS011;63750;52.418;20.742;2023-05-10T00:43:20;11.80;;;10.60;;
75171;SDS011;63750;52.418;20.742;2023-05-10T00:45:47;12.80;;;10.80;;
75171;SDS011;63750;52.418;20.742;2023-05-10T00:48:15;11.00;;;9.70;;
75171;SDS011;63750;52.418;20.742;2023-05-10T00:50:42;13.40;;;10.10;;
75171;SDS011;63750;52.418;20.742;2023-05-10T00:53:09;11.70;;;10.30;;
75171;SDS011;63750;52.418;20.742;2023-05-10T00:55:36;12.70;;;11.10;;
75171;SDS011;63750;52.418;20.742;2023-05-10T00:58:04;11.50;;;10.30;;
75171;SDS011;63750;52.418;20.742;2023-05-10T01:00:32;11.50;;;10.30;;
75171;SDS011;63750;52.418;20.742;2023-05-10T01:03:01;12.30;;;10.00;;
75171;SDS011;63750;52.418;20.742;2023-05-10T01:05:28;11.90;;;10.70;;
75171;SDS011;63750;52.418;20.742;2023-05-10T01:07:56;12.30;;;9.90;;
75171;SDS011;63750;52.418;20.742;2023-05-10T01:10:23;13.20;;;10.20;;
75171;SDS011;63750;52.418;20.742;2023-05-10T01:12:51;11.90;;;10.70;;
75171;SDS011;63750;52.418;20.742;2023-05-10T01:15:19;12.10;;;10.10;;
75171;SDS011;63750;52.418;20.742;2023-05-10T01:17:47;11.30;;;10.10;;
75171;SDS011;63750;52.418;20.742;2023-05-10T01:20:15;12.40;;;9.90;;
75171;SDS011;63750;52.418;20.742;2023-05-10T01:29:01;12.40;;;10.30;;
75171;SDS011;63750;52.418;20.742;2023-05-10T01:34:48;12.10;;;10.10;;
75171;SDS011;63750;52.418;20.742;2023-05-10T01:37:25;12.60;;;10.40;;
75171;SDS011;63750;52.418;20.742;2023-05-10T01:40:00;16.30;;;10.40;;
75171;SDS011;63750;52.418;20.742;2023-05-10T01:42:35;14.40;;;10.20;;
75171;SDS011;63750;52.418;20.742;2023-05-10T01:45:09;13.10;;;10.00;;
75171;SDS011;63750;52.418;20.742;2023-05-10T01:47:44;12.40;;;9.50;;
75171;SDS011;63750;52.418;20.742;2023-05-10T01:50:17;12.20;;;10.30;;
75171;SDS011;63750;52.418;20.742;2023-05-10T01:52:47;11.70;;;9.90;;
75171;SDS011;63750;52.418;20.742;2023-05-10T01:55:18;11.30;;;9.90;;
75171;SDS011;63750;52.418;20.742;2023-05-10T01:57:51;13.50;;;10.30;;
75171;SDS011;63750;52.418;20.742;2023-05-10T02:00:24;11.00;;;9.70;;
75171;SDS011;63750;52.418;20.742;2023-05-10T02:02:53;12.30;;;10.20;;
75171;SDS011;63750;52.418;20.742;2023-05-10T02:05:21;10.70;;;9.60;;
75171;SDS011;63750;52.418;20.742;2023-05-10T02:07:50;13.70;;;10.70;;
75171;SDS011;63750;52.418;20.742;2023-05-10T02:10:18;12.30;;;10.50;;
75171;SDS011;63750;52.418;20.742;2023-05-10T02:12:47;12.10;;;10.40;;
75171;SDS011;63750;52.418;20.742;2023-05-10T02:15:20;12.60;;;10.10;;
75171;SDS011;63750;52.418;20.742;2023-05-10T02:17:48;10.90;;;9.20;;
75171;SDS011;63750;52.418;20.742;2023-05-10T02:20:16;10.60;;;9.50;;
75171;SDS011;63750;52.418;20.742;2023-05-10T02:22:45;12.70;;;9.80;;
75171;SDS011;63750;52.418;20.742;2023-05-10T02:25:14;13.10;;;10.60;;
75171;SDS011;63750;52.418;20.742;2023-05-10T02:27:43;14.20;;;10.40;;
75171;SDS011;63750;52.418;20.742;2023-05-10T02:30:12;11.50;;;9.70;;
75171;SDS011;63750;52.418;20.742;2023-05-10T02:32:40;14.50;;;10.00;;
75171;SDS011;63750;52.418;20.742;2023-05-10T02:35:09;13.50;;;10.00;;
75171;SDS011;63750;52.418;20.742;2023-05-10T02:37:37;13.10;;;10.10;;
75171;SDS011;63750;52.418;20.742;2023-05-10T02:40:06;11.90;;;9.80;;
75171;SDS011;63750;52.418;20.742;2023-05-10T02:42:36;10.80;;;9.70;;
75171;SDS011;63750;52.418;20.742;2023-05-10T02:45:10;11.70;;;9.40;;
75171;SDS011;63750;52.418;20.742;2023-05-10T02:47:39;11.50;;;10.20;;
75171;SDS011;63750;52.418;20.742;2023-05-10T02:50:07;12.20;;;9.80;;
75171;SDS011;63750;52.418;20.742;2023-05-10T02:52:38;11.50;;;10.30;;
75171;SDS011;63750;52.418;20.742;2023-05-10T02:55:09;10.10;;;9.00;;
75171;SDS011;63750;52.418;20.742;2023-05-10T02:57:40;12.10;;;9.30;;
75171;SDS011;63750;52.418;20.742;2023-05-10T03:00:12;11.60;;;10.10;;
75171;SDS011;63750;52.418;20.742;2023-05-10T03:02:39;12.80;;;10.70;;
75171;SDS011;63750;52.418;20.742;2023-05-10T03:05:07;11.40;;;9.80;;
75171;SDS011;63750;52.418;20.742;2023-05-10T03:07:34;11.80;;;9.80;;
75171;SDS011;63750;52.418;20.742;2023-05-10T03:10:02;10.80;;;9.70;;
75171;SDS011;63750;52.418;20.742;2023-05-10T03:12:33;11.70;;;10.50;;
75171;SDS011;63750;52.418;20.742;2023-05-10T03:15:13;12.40;;;11.20;;
75171;SDS011;63750;52.418;20.742;2023-05-10T03:17:51;13.70;;;10.60;;
75171;SDS011;63750;52.418;20.742;2023-05-10T03:20:22;11.80;;;9.80;;
75171;SDS011;63750;52.418;20.742;2023-05-10T03:22:53;12.10;;;9.60;;
75171;SDS011;63750;52.418;20.742;2023-05-10T03:25:31;10.60;;;9.50;;
75171;SDS011;63750;52.418;20.742;2023-05-10T03:27:59;10.80;;;9.30;;
75171;SDS011;63750;52.418;20.742;2023-05-10T03:30:29;10.20;;;9.20;;
75171;SDS011;63750;52.418;20.742;2023-05-10T03:32:57;10.00;;;9.00;;
75171;SDS011;63750;52.418;20.742;2023-05-10T03:35:29;11.10;;;9.20;;
75171;SDS011;63750;52.418;20.742;2023-05-10T03:37:56;10.50;;;9.40;;
75171;SDS011;63750;52.418;20.742;2023-05-10T03:40:23;10.80;;;9.20;;
75171;SDS011;63750;52.418;20.742;2023-05-10T03:42:51;11.90;;;8.60;;
75171;SDS011;63750;52.418;20.742;2023-05-10T03:45:18;10.50;;;9.20;;
75171;SDS011;63750;52.418;20.742;2023-05-10T03:47:45;11.60;;;9.70;;
75171;SDS011;63750;52.418;20.742;2023-05-10T03:50:12;10.50;;;9.40;;
75171;SDS011;63750;52.418;20.742;2023-05-10T03:52:39;12.40;;;9.10;;
75171;SDS011;63750;52.418;20.742;2023-05-10T03:55:07;11.50;;;10.30;;
75171;SDS011;63750;52.418;20.742;2023-05-10T03:57:34;10.40;;;9.30;;
75171;SDS011;63750;52.418;20.742;2023-05-10T04:00:01;12.00;;;9.60;;
75171;SDS011;63750;52.418;20.742;2023-05-10T04:02:29;12.90;;;10.20;;
75171;SDS011;63750;52.418;20.742;2023-05-10T04:04:56;9.90;;;8.90;;
75171;SDS011;63750;52.418;20.742;2023-05-10T04:07:23;11.70;;;9.40;;
75171;SDS011;63750;52.418;20.742;2023-05-10T04:09:50;9.70;;;8.70;;
75171;SDS011;63750;52.418;20.742;2023-05-10T04:12:18;11.50;;;9.20;;
75171;SDS011;63750;52.418;20.742;2023-05-10T04:14:44;11.00;;;9.20;;
75171;SDS011;63750;52.418;20.742;2023-05-10T04:17:11;12.40;;;8.80;;
75171;SDS011;63750;52.418;20.742;2023-05-10T04:19:38;10.80;;;8.20;;
75171;SDS011;63750;52.418;20.742;2023-05-10T04:22:05;10.50;;;8.90;;
75171;SDS011;63750;52.418;20.742;2023-05-10T04:24:32;10.40;;;8.60;;
75171;SDS011;63750;52.418;20.742;2023-05-10T04:26:59;13.90;;;9.30;;
75171;SDS011;63750;52.418;20.742;2023-05-10T04:29:26;10.20;;;8.90;;
75171;SDS011;63750;52.418;20.742;2023-05-10T04:31:53;8.80;;;7.90;;
75171;SDS011;63750;52.418;20.742;2023-05-10T04:34:21;11.80;;;9.60;;
75171;SDS011;63750;52.418;20.742;2023-05-10T04:36:48;11.40;;;9.60;;
75171;SDS011;63750;52.418;20.742;2023-05-10T04:39:15;10.70;;;8.30;;
75171;SDS011;63750;52.418;20.742;2023-05-10T04:41:42;9.60;;;8.70;;
75171;SDS011;63750;52.418;20.742;2023-05-10T04:44:09;9.20;;;8.30;;
75171;SDS011;63750;52.418;20.742;2023-05-10T04:46:36;9.70;;;8.70;;
75171;SDS011;63750;52.418;20.742;2023-05-10T04:49:03;12.20;;;10.50;;
75171;SDS011;63750;52.418;20.742;2023-05-10T04:51:30;8.90;;;8.00;;
75171;SDS011;63750;52.418;20.742;2023-05-10T04:53:57;10.80;;;8.80;;
75171;SDS011;63750;52.418;20.742;2023-05-10T04:56:24;9.40;;;7.80;;
75171;SDS011;63750;52.418;20.742;2023-05-10T04:58:51;10.40;;;9.00;;
75171;SDS011;63750;52.418;20.742;2023-05-10T05:01:18;10.20;;;8.20;;
75171;SDS011;63750;52.418;20.742;2023-05-10T05:03:45;10.60;;;7.60;;
75171;SDS011;63750;52.418;20.742;2023-05-10T05:06:13;11.50;;;8.40;;
75171;SDS011;63750;52.418;20.742;2023-05-10T05:08:41;10.20;;;8.10;;
75171;SDS011;63750;52.418;20.742;2023-05-10T05:11:08;10.00;;;7.60;;
75171;SDS011;63750;52.418;20.742;2023-05-10T05:13:35;10.30;;;7.70;;
75171;SDS011;63750;52.418;20.742;2023-05-10T05:16:02;9.60;;;8.50;;
75171;SDS011;63750;52.418;20.742;2023-05-10T05:18:30;10.40;;;8.00;;
75171;SDS011;63750;52.418;20.742;2023-05-10T05:20:57;11.10;;;8.10;;
75171;SDS011;63750;52.418;20.742;2023-05-10T05:23:24;11.40;;;7.60;;
75171;SDS011;63750;52.418;20.742;2023-05-10T05:25:51;8.60;;;7.40;;
75171;SDS011;63750;52.418;20.742;2023-05-10T05:28:19;10.70;;;8.10;;
75171;SDS011;63750;52.418;20.742;2023-05-10T05:30:46;9.60;;;8.00;;
75171;SDS011;63750;52.418;20.742;2023-05-10T05:33:13;8.00;;;7.20;;
75171;SDS011;63750;52.418;20.742;2023-05-10T05:35:40;11.60;;;8.70;;
75171;SDS011;63750;52.418;20.742;2023-05-10T05:38:07;9.90;;;7.60;;
75171;SDS011;63750;52.418;20.742;2023-05-10T05:40:35;8.90;;;7.50;;
75171;SDS011;63750;52.418;20.742;2023-05-10T05:43:02;10.20;;;7.60;;
75171;SDS011;63750;52.418;20.742;2023-05-10T05:45:29;11.30;;;7.70;;
75171;SDS011;63750;52.418;20.742;2023-05-10T05:47:56;8.90;;;7.70;;
75171;SDS011;63750;52.418;20.742;2023-05-10T05:50:23;9.30;;;7.00;;
75171;SDS011;63750;52.418;20.742;2023-05-10T05:52:50;9.70;;;6.90;;
75171;SDS011;63750;52.418;20.742;2023-05-10T05:55:17;8.00;;;6.90;;
75171;SDS011;63750;52.418;20.742;2023-05-10T05:57:44;9.30;;;7.30;;
75171;SDS011;63750;52.418;20.742;2023-05-10T06:00:12;8.70;;;7.00;;
75171;SDS011;63750;52.418;20.742;2023-05-10T06:02:40;8.20;;;7.00;;
75171;SDS011;63750;52.418;20.742;2023-05-10T06:05:08;12.90;;;8.70;;
75171;SDS011;63750;52.418;20.742;2023-05-10T06:07:35;7.10;;;6.40;;
75171;SDS011;63750;52.418;20.742;2023-05-10T06:10:02;11.00;;;7.20;;
75171;SDS011;63750;52.418;20.742;2023-05-10T06:12:30;10.20;;;8.00;;
75171;SDS011;63750;52.418;20.742;2023-05-10T06:14:57;11.40;;;7.20;;
75171;SDS011;63750;52.418;20.742;2023-05-10T06:17:24;9.90;;;6.60;;
75171;SDS011;63750;52.418;20.742;2023-05-10T06:19:51;8.00;;;6.40;;
75171;SDS011;63750;52.418;20.742;2023-05-10T06:22:18;7.10;;;6.40;;
75171;SDS011;63750;52.418;20.742;2023-05-10T06:24:45;10.70;;;6.80;;
75171;SDS011;63750;52.418;20.742;2023-05-10T06:27:12;9.90;;;7.30;;
75171;SDS011;63750;52.418;20.742;2023-05-10T06:29:39;7.10;;;6.40;;
75171;SDS011;63750;52.418;20.742;2023-05-10T06:32:06;7.60;;;6.20;;
75171;SDS011;63750;52.418;20.742;2023-05-10T06:34:33;8.00;;;6.60;;
75171;SDS011;63750;52.418;20.742;2023-05-10T06:37:00;12.50;;;6.70;;
75171;SDS011;63750;52.418;20.742;2023-05-10T06:39:27;8.30;;;6.10;;
75171;SDS011;63750;52.418;20.742;2023-05-10T06:41:54;9.80;;;5.90;;
75171;SDS011;63750;52.418;20.742;2023-05-10T06:44:21;8.40;;;6.00;;
75171;SDS011;63750;52.418;20.742;2023-05-10T06:46:48;9.80;;;7.00;;
75171;SDS011;63750;52.418;20.742;2023-05-10T06:49:15;10.70;;;6.60;;
75171;SDS011;63750;52.418;20.742;2023-05-10T06:51:42;6.80;;;6.10;;
75171;SDS011;63750;52.418;20.742;2023-05-10T06:54:09;8.40;;;6.00;;
75171;SDS011;63750;52.418;20.742;2023-05-10T06:56:36;7.90;;;5.70;;
75171;SDS011;63750;52.418;20.742;2023-05-10T06:59:03;8.80;;;5.80;;
75171;SDS011;63750;52.418;20.742;2023-05-10T07:01:30;8.60;;;6.20;;
75171;SDS011;63750;52.418;20.742;2023-05-10T07:03:57;7.70;;;5.70;;
75171;SDS011;63750;52.418;20.742;2023-05-10T07:06:24;6.80;;;5.20;;
75171;SDS011;63750;52.418;20.742;2023-05-10T07:08:51;8.30;;;5.20;;
75171;SDS011;63750;52.418;20.742;2023-05-10T07:11:18;6.40;;;5.20;;
75171;SDS011;63750;52.418;20.742;2023-05-10T07:13:45;6.80;;;5.00;;
75171;SDS011;63750;52.418;20.742;2023-05-10T07:16:12;9.50;;;5.20;;
75171;SDS011;63750;52.418;20.742;2023-05-10T07:18:39;6.70;;;4.80;;
75171;SDS011;63750;52.418;20.742;2023-05-10T07:21:06;6.90;;;4.20;;
75171;SDS011;63750;52.418;20.742;2023-05-10T07:23:33;6.60;;;4.50;;
75171;SDS011;63750;52.418;20.742;2023-05-10T07:26:00;5.90;;;4.60;;
75171;SDS011;63750;52.418;20.742;2023-05-10T07:28:27;6.60;;;4.20;;
75171;SDS011;63750;52.418;20.742;2023-05-10T07:30:54;6.40;;;4.30;;
75171;SDS011;63750;52.418;20.742;2023-05-10T07:33:21;6.40;;;4.10;;
75171;SDS011;63750;52.418;20.742;2023-05-10T07:35:49;6.90;;;4.30;;
75171;SDS011;63750;52.418;20.742;2023-05-10T07:38:16;7.90;;;4.60;;
75171;SDS011;63750;52.418;20.742;2023-05-10T07:40:43;5.50;;;4.20;;
75171;SDS011;63750;52.418;20.742;2023-05-10T07:43:11;5.30;;;4.20;;
75171;SDS011;63750;52.418;20.742;2023-05-10T07:45:38;5.10;;;4.60;;
75171;SDS011;63750;52.418;20.742;2023-05-10T07:48:05;6.80;;;4.10;;
75171;SDS011;63750;52.418;20.742;2023-05-10T07:50:32;6.10;;;4.10;;
75171;SDS011;63750;52.418;20.742;2023-05-10T07:52:59;5.00;;;4.30;;
75171;SDS011;63750;52.418;20.742;2023-05-10T07:55:25;5.80;;;4.30;;
75171;SDS011;63750;52.418;20.742;2023-05-10T07:57:52;6.70;;;4.60;;
75171;SDS011;63750;52.418;20.742;2023-05-10T08:00:20;5.60;;;4.10;;
75171;SDS011;63750;52.418;20.742;2023-05-10T08:02:47;6.00;;;4.00;;
75171;SDS011;63750;52.418;20.742;2023-05-10T08:05:14;4.80;;;4.20;;
75171;SDS011;63750;52.418;20.742;2023-05-10T08:07:41;5.40;;;4.20;;
75171;SDS011;63750;52.418;20.742;2023-05-10T08:10:09;5.20;;;4.00;;
75171;SDS011;63750;52.418;20.742;2023-05-10T08:12:36;4.90;;;4.30;;
75171;SDS011;63750;52.418;20.742;2023-05-10T08:15:05;5.50;;;3.90;;
75171;SDS011;63750;52.418;20.742;2023-05-10T08:17:33;5.50;;;4.10;;
75171;SDS011;63750;52.418;20.742;2023-05-10T08:20:00;6.40;;;4.00;;
75171;SDS011;63750;52.418;20.742;2023-05-10T08:22:28;4.40;;;3.80;;
75171;SDS011;63750;52.418;20.742;2023-05-10T08:24:55;5.20;;;3.70;;
75171;SDS011;63750;52.418;20.742;2023-05-10T08:27:22;5.40;;;3.70;;
75171;SDS011;63750;52.418;20.742;2023-05-10T08:29:49;4.40;;;4.00;;
75171;SDS011;63750;52.418;20.742;2023-05-10T08:32:16;5.80;;;4.20;;
75171;SDS011;63750;52.418;20.742;2023-05-10T08:34:43;5.00;;;4.10;;
75171;SDS011;63750;52.418;20.742;2023-05-10T08:37:10;4.00;;;3.50;;
75171;SDS011;63750;52.418;20.742;2023-05-10T08:39:37;8.90;;;4.00;;
75171;SDS011;63750;52.418;20.742;2023-05-10T08:42:04;6.20;;;4.00;;
75171;SDS011;63750;52.418;20.742;2023-05-10T08:44:32;6.90;;;4.10;;
75171;SDS011;63750;52.418;20.742;2023-05-10T08:47:02;6.10;;;4.10;;
75171;SDS011;63750;52.418;20.742;2023-05-10T08:49:31;4.00;;;3.70;;
75171;SDS011;63750;52.418;20.742;2023-05-10T08:51:59;4.40;;;4.00;;
75171;SDS011;63750;52.418;20.742;2023-05-10T08:54:29;6.50;;;4.20;;
75171;SDS011;63750;52.418;20.742;2023-05-10T08:56:57;5.90;;;3.90;;
75171;SDS011;63750;52.418;20.742;2023-05-10T08:59:24;4.60;;;4.00;;
75171;SDS011;63750;52.418;20.742;2023-05-10T09:01:51;3.80;;;3.50;;
75171;SDS011;63750;52.418;20.742;2023-05-10T09:04:19;4.90;;;3.60;;
75171;SDS011;63750;52.418;20.742;2023-05-10T09:06:47;4.30;;;3.50;;
75171;SDS011;63750;52.418;20.742;2023-05-10T09:09:15;6.10;;;4.10;;
75171;SDS011;63750;52.418;20.742;2023-05-10T09:11:43;7.30;;;3.90;;
75171;SDS011;63750;52.418;20.742;2023-05-10T09:14:10;6.00;;;4.00;;
75171;SDS011;63750;52.418;20.742;2023-05-10T09:16:39;5.20;;;3.80;;
75171;SDS011;63750;52.418;20.742;2023-05-10T09:19:06;4.20;;;3.80;;
75171;SDS011;63750;52.418;20.742;2023-05-10T09:21:34;4.40;;;4.00;;
75171;SDS011;63750;52.418;20.742;2023-05-10T09:24:03;4.20;;;3.50;;
75171;SDS011;63750;52.418;20.742;2023-05-10T09:26:31;5.30;;;3.80;;
75171;SDS011;63750;52.418;20.742;2023-05-10T09:28:59;5.60;;;3.90;;
75171;SDS011;63750;52.418;20.742;2023-05-10T09:31:42;4.00;;;3.60;;
75171;SDS011;63750;52.418;20.742;2023-05-10T09:34:11;5.00;;;4.50;;
75171;SDS011;63750;52.418;20.742;2023-05-10T09:36:50;9.00;;;4.90;;
75171;SDS011;63750;52.418;20.742;2023-05-10T09:39:18;5.10;;;3.80;;
75171;SDS011;63750;52.418;20.742;2023-05-10T09:41:46;5.70;;;3.80;;
75171;SDS011;63750;52.418;20.742;2023-05-10T09:44:15;6.10;;;4.00;;
75171;SDS011;63750;52.418;20.742;2023-05-10T09:46:43;4.50;;;4.10;;
75171;SDS011;63750;52.418;20.742;2023-05-10T09:49:15;4.80;;;4.00;;
75171;SDS011;63750;52.418;20.742;2023-05-10T09:51:42;5.90;;;3.70;;
75171;SDS011;63750;52.418;20.742;2023-05-10T09:54:10;6.90;;;3.80;;
75171;SDS011;63750;52.418;20.742;2023-05-10T09:56:38;5.00;;;4.10;;
75171;SDS011;63750;52.418;20.742;2023-05-10T09:59:05;4.80;;;4.10;;
75171;SDS011;63750;52.418;20.742;2023-05-10T10:01:33;4.80;;;3.90;;
75171;SDS011;63750;52.418;20.742;2023-05-10T10:04:01;4.70;;;3.80;;
75171;SDS011;63750;52.418;20.742;2023-05-10T10:06:30;5.90;;;3.90;;
75171;SDS011;63750;52.418;20.742;2023-05-10T10:09:02;4.40;;;3.50;;
75171;SDS011;63750;52.418;20.742;2023-05-10T10:11:29;6.10;;;3.70;;
75171;SDS011;63750;52.418;20.742;2023-05-10T10:13:56;4.50;;;3.90;;
75171;SDS011;63750;52.418;20.742;2023-05-10T10:16:24;5.30;;;4.00;;
75171;SDS011;63750;52.418;20.742;2023-05-10T10:18:52;7.10;;;3.80;;
75171;SDS011;63750;52.418;20.742;2023-05-10T10:21:20;4.60;;;3.40;;
75171;SDS011;63750;52.418;20.742;2023-05-10T10:23:47;5.10;;;3.90;;
75171;SDS011;63750;52.418;20.742;2023-05-10T10:26:15;4.00;;;3.50;;
75171;SDS011;63750;52.418;20.742;2023-05-10T10:28:45;4.80;;;3.90;;
75171;SDS011;63750;52.418;20.742;2023-05-10T10:31:20;4.60;;;4.20;;
75171;SDS011;63750;52.418;20.742;2023-05-10T10:33:59;4.00;;;3.50;;
75171;SDS011;63750;52.418;20.742;2023-05-10T10:36:29;5.40;;;3.70;;
75171;SDS011;63750;52.418;20.742;2023-05-10T10:38:57;4.60;;;3.60;;
75171;SDS011;63750;52.418;20.742;2023-05-10T10:41:28;4.50;;;3.70;;
75171;SDS011;63750;52.418;20.742;2023-05-10T10:49:50;6.60;;;3.60;;
75171;SDS011;63750;52.418;20.742;2023-05-10T10:52:31;4.40;;;3.90;;
75171;SDS011;63750;52.418;20.742;2023-05-10T10:55:00;4.50;;;3.70;;
75171;SDS011;63750;52.418;20.742;2023-05-10T10:57:29;5.40;;;4.00;;
75171;SDS011;63750;52.418;20.742;2023-05-10T11:02:52;5.70;;;3.70;;
75171;SDS011;63750;52.418;20.742;2023-05-10T11:08:18;6.80;;;4.00;;
75171;SDS011;63750;52.418;20.742;2023-05-10T11:10:53;5.20;;;3.80;;
75171;SDS011;63750;52.418;20.742;2023-05-10T11:13:31;4.70;;;3.30;;
75171;SDS011;63750;52.418;20.742;2023-05-10T11:16:13;4.60;;;3.80;;
75171;SDS011;63750;52.418;20.742;2023-05-10T11:18:59;5.30;;;3.60;;
75171;SDS011;63750;52.418;20.742;2023-05-10T11:21:29;4.80;;;3.50;;
75171;SDS011;63750;52.418;20.742;2023-05-10T11:24:01;4.90;;;3.40;;
75171;SDS011;63750;52.418;20.742;2023-05-10T11:26:41;5.50;;;3.60;;
75171;SDS011;63750;52.418;20.742;2023-05-10T11:29:09;4.30;;;3.90;;
75171;SDS011;63750;52.418;20.742;2023-05-10T11:31:46;5.70;;;3.90;;
75171;SDS011;63750;52.418;20.742;2023-05-10T11:34:23;4.30;;;3.90;;
75171;SDS011;63750;52.418;20.742;2023-05-10T11:36:53;4.70;;;3.70;;
75171;SDS011;63750;52.418;20.742;2023-05-10T11:39:22;5.10;;;3.60;;
75171;SDS011;63750;52.418;20.742;2023-05-10T11:41:56;5.90;;;4.00;;
75171;SDS011;63750;52.418;20.742;2023-05-10T11:44:23;5.60;;;3.20;;
75171;SDS011;63750;52.418;20.742;2023-05-10T11:46:56;5.10;;;4.20;;
75171;SDS011;63750;52.418;20.742;2023-05-10T11:49:25;4.70;;;4.00;;
75171;SDS011;63750;52.418;20.742;2023-05-10T11:51:52;5.20;;;3.80;;
75171;SDS011;63750;52.418;20.742;2023-05-10T11:54:29;5.60;;;3.70;;
75171;SDS011;63750;52.418;20.742;2023-05-10T11:56:56;5.00;;;4.20;;
75171;SDS011;63750;52.418;20.742;2023-05-10T11:59:23;4.50;;;3.70;;
75171;SDS011;63750;52.418;20.742;2023-05-10T12:01:51;5.80;;;4.10;;
75171;SDS011;63750;52.418;20.742;2023-05-10T12:04:19;3.60;;;3.30;;
75171;SDS011;63750;52.418;20.742;2023-05-10T12:06:47;4.30;;;3.50;;
75171;SDS011;63750;52.418;20.742;2023-05-10T12:09:14;7.30;;;4.10;;
75171;SDS011;63750;52.418;20.742;2023-05-10T12:11:41;5.00;;;3.70;;
75171;SDS011;63750;52.418;20.742;2023-05-10T12:14:08;7.10;;;4.20;;
75171;SDS011;63750;52.418;20.742;2023-05-10T12:16:36;6.20;;;3.50;;
75171;SDS011;63750;52.418;20.742;2023-05-10T12:19:03;5.60;;;3.70;;
75171;SDS011;63750;52.418;20.742;2023-05-10T12:21:30;5.80;;;4.00;;
75171;SDS011;63750;52.418;20.742;2023-05-10T12:24:00;5.40;;;3.70;;
75171;SDS011;63750;52.418;20.742;2023-05-10T12:26:29;4.70;;;3.70;;
75171;SDS011;63750;52.418;20.742;2023-05-10T12:29:11;4.70;;;3.80;;
75171;SDS011;63750;52.418;20.742;2023-05-10T12:31:49;5.50;;;3.80;;
75171;SDS011;63750;52.418;20.742;2023-05-10T12:34:23;5.80;;;3.70;;
75171;SDS011;63750;52.418;20.742;2023-05-10T12:36:55;5.70;;;3.90;;
75171;SDS011;63750;52.418;20.742;2023-05-10T12:39:23;5.10;;;3.80;;
75171;SDS011;63750;52.418;20.742;2023-05-10T12:41:51;5.00;;;3.80;;
75171;SDS011;63750;52.418;20.742;2023-05-10T12:44:20;6.10;;;4.10;;
75171;SDS011;63750;52.418;20.742;2023-05-10T12:46:47;6.80;;;4.10;;
75171;SDS011;63750;52.418;20.742;2023-05-10T12:49:14;6.10;;;3.90;;
75171;SDS011;63750;52.418;20.742;2023-05-10T12:51:41;5.10;;;4.00;;
75171;SDS011;63750;52.418;20.742;2023-05-10T12:54:09;4.40;;;4.00;;
75171;SDS011;63750;52.418;20.742;2023-05-10T12:56:36;6.90;;;4.20;;
75171;SDS011;63750;52.418;20.742;2023-05-10T12:59:03;7.00;;;4.00;;
75171;SDS011;63750;52.418;20.742;2023-05-10T13:01:33;4.50;;;3.50;;
75171;SDS011;63750;52.418;20.742;2023-05-10T13:04:00;6.00;;;4.00;;
75171;SDS011;63750;52.418;20.742;2023-05-10T13:06:27;4.00;;;3.50;;
75171;SDS011;63750;52.418;20.742;2023-05-10T13:08:54;7.40;;;4.10;;
75171;SDS011;63750;52.418;20.742;2023-05-10T13:11:21;6.90;;;4.40;;
75171;SDS011;63750;52.418;20.742;2023-05-10T13:13:50;6.40;;;4.00;;
75171;SDS011;63750;52.418;20.742;2023-05-10T13:16:18;4.20;;;3.40;;
75171;SDS011;63750;52.418;20.742;2023-05-10T13:18:45;5.90;;;4.10;;
75171;SDS011;63750;52.418;20.742;2023-05-10T13:21:12;6.00;;;4.30;;
75171;SDS011;63750;52.418;20.742;2023-05-10T13:23:40;6.00;;;3.70;;
75171;SDS011;63750;52.418;20.742;2023-05-10T13:26:07;5.30;;;4.30;;
75171;SDS011;63750;52.418;20.742;2023-05-10T13:28:34;6.10;;;4.20;;
75171;SDS011;63750;52.418;20.742;2023-05-10T13:31:01;4.70;;;3.70;;
75171;SDS011;63750;52.418;20.742;2023-05-10T13:33:28;4.60;;;3.90;;
75171;SDS011;63750;52.418;20.742;2023-05-10T13:35:55;5.60;;;4.10;;
75171;SDS011;63750;52.418;20.742;2023-05-10T13:38:22;6.20;;;4.10;;
75171;SDS011;63750;52.418;20.742;2023-05-10T13:40:49;4.50;;;4.00;;
75171;SDS011;63750;52.418;20.742;2023-05-10T13:43:16;4.30;;;3.90;;
75171;SDS011;63750;52.418;20.742;2023-05-10T13:45:43;4.90;;;3.70;;
75171;SDS011;63750;52.418;20.742;2023-05-10T13:48:10;6.40;;;3.80;;
75171;SDS011;63750;52.418;20.742;2023-05-10T13:50:37;4.40;;;4.00;;
75171;SDS011;63750;52.418;20.742;2023-05-10T13:53:05;4.80;;;4.20;;
75171;SDS011;63750;52.418;20.742;2023-05-10T13:55:32;5.30;;;4.10;;
75171;SDS011;63750;52.418;20.742;2023-05-10T13:57:59;5.50;;;3.70;;
75171;SDS011;63750;52.418;20.742;2023-05-10T14:00:26;5.50;;;3.90;;
75171;SDS011;63750;52.418;20.742;2023-05-10T14:02:53;6.00;;;3.80;;
75171;SDS011;63750;52.418;20.742;2023-05-10T14:05:21;4.90;;;3.90;;
75171;SDS011;63750;52.418;20.742;2023-05-10T14:07:49;5.10;;;3.40;;
75171;SDS011;63750;52.418;20.742;2023-05-10T14:10:16;5.80;;;4.20;;
75171;SDS011;63750;52.418;20.742;2023-05-10T14:12:43;4.90;;;3.80;;
75171;SDS011;63750;52.418;20.742;2023-05-10T14:15:11;4.90;;;4.10;;
75171;SDS011;63750;52.418;20.742;2023-05-10T14:17:37;4.80;;;4.10;;
75171;SDS011;63750;52.418;20.742;2023-05-10T14:20:06;5.10;;;3.80;;
75171;SDS011;63750;52.418;20.742;2023-05-10T14:22:34;4.60;;;4.10;;
75171;SDS011;63750;52.418;20.742;2023-05-10T14:25:01;5.60;;;4.30;;
75171;SDS011;63750;52.418;20.742;2023-05-10T14:27:28;5.60;;;4.00;;
75171;SDS011;63750;52.418;20.742;2023-05-10T14:29:55;4.70;;;4.00;;
75171;SDS011;63750;52.418;20.742;2023-05-10T14:32:22;5.20;;;3.80;;
75171;SDS011;63750;52.418;20.742;2023-05-10T14:34:49;6.90;;;4.10;;
75171;SDS011;63750;52.418;20.742;2023-05-10T14:37:16;4.60;;;4.00;;
75171;SDS011;63750;52.418;20.742;2023-05-10T14:39:43;4.70;;;4.10;;
75171;SDS011;63750;52.418;20.742;2023-05-10T14:42:10;3.90;;;3.50;;
75171;SDS011;63750;52.418;20.742;2023-05-10T14:44:37;5.80;;;3.70;;
75171;SDS011;63750;52.418;20.742;2023-05-10T14:47:04;7.40;;;4.00;;
75171;SDS011;63750;52.418;20.742;2023-05-10T14:49:31;5.20;;;4.10;;
75171;SDS011;63750;52.418;20.742;2023-05-10T14:51:58;5.80;;;3.40;;
75171;SDS011;63750;52.418;20.742;2023-05-10T14:54:25;4.50;;;3.90;;
75171;SDS011;63750;52.418;20.742;2023-05-10T14:56:52;4.20;;;3.80;;